Time;durP1;ratioP1;P1;durP2;ratioP2;P2;SDS_P1;SDS_P2;PMS_P1;PMS_P2;Temp;Humidity;BMP_temperature;BMP_pressure;BME280_temperature;BME280_humidity;BME280_pressure;Samples;Min_cycle;Max_cycle;Signal;HPM_P1;HPM_P2
2021/06/25 00:00:49;;;;;;;5.00;4.50;;;19.90;99.90;;;;;;5073715;28;20032;-65
2021/06/25 00:03:15;;;;;;;5.28;4.78;;;19.90;99.90;;;;;;5073434;28;20032;-65
2021/06/25 00:05:40;;;;;;;5.20;4.70;;;19.90;99.90;;;;;;5072962;28;20036;-67
2021/06/25 00:08:06;;;;;;;5.60;5.10;;;19.90;99.90;;;;;;5073510;28;20107;-66
2021/06/25 00:10:32;;;;;;;5.18;4.68;;;19.90;99.90;;;;;;5072890;28;20037;-65
2021/06/25 00:12:58;;;;;;;6.30;5.05;;;19.90;99.90;;;;;;5073326;28;20056;-65
2021/06/25 00:15:24;;;;;;;4.75;4.32;;;19.90;99.90;;;;;;5072984;28;20052;-65
2021/06/25 00:17:50;;;;;;;5.07;4.50;;;19.90;99.90;;;;;;5073519;28;20024;-65
2021/06/25 00:20:16;;;;;;;4.65;4.00;;;19.90;99.90;;;;;;5072889;28;20028;-65
2021/06/25 00:22:43;;;;;;;5.05;4.60;;;19.90;99.90;;;;;;5072789;28;20067;-65
2021/06/25 00:25:09;;;;;;;5.13;4.63;;;19.90;99.90;;;;;;5072799;28;20036;-67
2021/06/25 00:27:35;;;;;;;5.80;4.50;;;19.90;99.90;;;;;;5072956;28;20419;-64
2021/06/25 00:30:01;;;;;;;4.95;4.40;;;19.90;99.90;;;;;;5072879;28;20032;-64
2021/06/25 00:32:26;;;;;;;6.78;4.97;;;19.90;99.90;;;;;;5091111;28;20149;-66
2021/06/25 00:34:52;;;;;;;5.55;5.05;;;19.90;99.90;;;;;;5093487;28;20032;-65
2021/06/25 00:37:21;;;;;;;5.22;4.72;;;19.80;99.90;;;;;;5093070;28;20490;-66
2021/06/25 00:39:46;;;;;;;4.80;4.28;;;19.90;99.90;;;;;;5092689;28;20024;-66
2021/06/25 00:42:12;;;;;;;5.57;5.00;;;19.80;99.90;;;;;;5091168;28;20438;-67
2021/06/25 00:44:39;;;;;;;5.10;4.60;;;19.80;99.90;;;;;;5092196;28;20043;-65
2021/06/25 00:47:06;;;;;;;4.97;4.47;;;19.80;99.90;;;;;;5092963;28;20433;-65
2021/06/25 00:49:32;;;;;;;5.00;4.50;;;19.80;99.90;;;;;;5085502;28;20483;-65
2021/06/25 00:51:57;;;;;;;5.15;4.65;;;19.80;99.90;;;;;;5072155;28;20028;-65
2021/06/25 00:54:23;;;;;;;5.20;4.70;;;19.80;99.90;;;;;;5072112;28;20024;-64
2021/06/25 00:56:49;;;;;;;5.30;4.80;;;19.80;99.90;;;;;;5072615;28;20028;-66
2021/06/25 00:59:14;;;;;;;4.93;4.43;;;19.70;99.90;;;;;;5072603;28;20025;-66
2021/06/25 01:01:40;;;;;;;4.85;4.40;;;19.80;99.90;;;;;;5070639;28;20024;-65
2021/06/25 01:04:06;;;;;;;5.82;5.10;;;19.80;99.90;;;;;;5072135;28;20028;-65
2021/06/25 01:06:32;;;;;;;5.15;4.65;;;19.80;99.90;;;;;;5072005;28;20024;-68
2021/06/25 01:08:58;;;;;;;4.90;4.50;;;19.80;99.90;;;;;;5071958;28;20043;-69
2021/06/25 01:11:24;;;;;;;6.55;5.20;;;19.80;99.90;;;;;;5072937;28;20017;-66
2021/06/25 01:13:49;;;;;;;5.50;5.00;;;19.70;99.90;;;;;;5092404;28;20035;-66
2021/06/25 01:16:15;;;;;;;5.72;5.15;;;19.70;99.90;;;;;;5089361;28;20077;-65
2021/06/25 01:18:41;;;;;;;5.35;4.85;;;19.70;99.90;;;;;;5090316;28;20077;-66
2021/06/25 01:21:08;;;;;;;5.60;5.00;;;19.70;99.90;;;;;;5071009;28;20032;-65
2021/06/25 01:23:41;;;;;;;4.88;4.45;;;19.70;99.90;;;;;;5071559;28;20032;-65
2021/06/25 01:26:07;;;;;;;5.53;5.03;;;19.70;99.90;;;;;;5071791;28;20539;-65
2021/06/25 01:28:33;;;;;;;5.63;5.05;;;19.70;99.90;;;;;;5071640;28;20473;-65
2021/06/25 01:31:00;;;;;;;5.00;4.50;;;19.70;99.90;;;;;;5071827;28;20035;-65
2021/06/25 01:33:27;;;;;;;5.57;5.00;;;19.70;99.90;;;;;;5071474;28;20021;-66
2021/06/25 01:35:54;;;;;;;5.50;5.00;;;19.70;99.90;;;;;;5071839;28;20024;-65
2021/06/25 01:38:20;;;;;;;6.00;5.50;;;19.70;99.90;;;;;;5071901;28;20028;-67
2021/06/25 01:40:45;;;;;;;5.88;5.28;;;19.70;99.90;;;;;;5071497;28;20031;-65
2021/06/25 01:43:12;;;;;;;5.82;5.32;;;19.70;99.90;;;;;;5071903;28;20024;-67
2021/06/25 01:45:39;;;;;;;5.80;5.03;;;19.70;99.90;;;;;;5071424;28;20120;-66
2021/06/25 01:48:05;;;;;;;6.40;5.22;;;19.60;99.90;;;;;;5070194;28;20111;-65
2021/06/25 01:50:36;;;;;;;5.72;5.20;;;19.70;99.90;;;;;;5070845;28;20093;-65
2021/06/25 01:53:03;;;;;;;5.93;5.32;;;19.60;99.90;;;;;;5080333;28;20047;-65
2021/06/25 01:55:40;;;;;;;5.75;5.15;;;19.60;99.90;;;;;;5091493;28;20099;-65
2021/06/25 01:58:18;;;;;;;5.88;5.38;;;19.60;99.90;;;;;;5080915;28;20036;-66
2021/06/25 02:00:49;;;;;;;5.70;5.10;;;19.60;99.90;;;;;;5083598;28;20114;-65
2021/06/25 02:03:14;;;;;;;6.03;5.45;;;19.60;99.90;;;;;;5091667;28;20507;-66
2021/06/25 02:05:40;;;;;;;6.28;4.97;;;19.60;99.90;;;;;;5089527;28;20083;-66
2021/06/25 02:08:06;;;;;;;5.57;5.07;;;19.60;99.90;;;;;;5091470;28;20024;-68
2021/06/25 02:10:31;;;;;;;5.72;5.18;;;19.60;99.90;;;;;;5091204;28;20039;-68
2021/06/25 02:12:57;;;;;;;5.90;5.30;;;19.60;99.90;;;;;;5073396;28;20033;-66
2021/06/25 02:15:23;;;;;;;6.20;5.60;;;19.60;99.90;;;;;;5071265;28;20024;-65
2021/06/25 02:17:49;;;;;;;6.60;5.88;;;19.60;99.90;;;;;;5071723;28;20035;-65
2021/06/25 02:20:15;;;;;;;5.32;4.93;;;19.60;99.90;;;;;;5071271;28;20091;-66
2021/06/25 02:22:41;;;;;;;5.90;5.30;;;19.60;99.90;;;;;;5070995;28;20028;-64
2021/06/25 02:25:09;;;;;;;5.68;5.13;;;19.60;99.90;;;;;;5071001;28;20041;-67
2021/06/25 02:27:35;;;;;;;6.10;5.50;;;19.50;99.90;;;;;;5070804;28;20024;-66
2021/06/25 02:30:01;;;;;;;6.30;5.70;;;19.50;99.90;;;;;;5070904;28;20405;-66
2021/06/25 02:32:27;;;;;;;6.82;5.55;;;19.60;99.90;;;;;;5070914;28;20056;-70
2021/06/25 02:34:53;;;;;;;6.35;5.75;;;19.50;99.90;;;;;;5071154;28;20056;-67
2021/06/25 02:37:18;;;;;;;6.15;5.55;;;19.50;99.90;;;;;;5071257;28;20436;-66
2021/06/25 02:39:44;;;;;;;5.60;5.10;;;19.50;99.90;;;;;;5070810;28;20024;-67
2021/06/25 02:42:09;;;;;;;5.63;5.13;;;19.50;99.90;;;;;;5072862;28;20043;-65
2021/06/25 02:44:35;;;;;;;6.05;5.45;;;19.50;99.90;;;;;;5070168;28;20187;-66
2021/06/25 02:47:01;;;;;;;6.32;5.72;;;19.50;99.90;;;;;;5089173;28;20365;-65
2021/06/25 02:49:26;;;;;;;6.03;5.53;;;19.50;99.90;;;;;;5090949;28;20036;-67
2021/06/25 02:51:52;;;;;;;6.82;6.13;;;19.50;99.90;;;;;;5091418;28;20028;-68
2021/06/25 02:54:18;;;;;;;5.95;5.35;;;19.50;99.90;;;;;;5091433;28;20077;-67
2021/06/25 02:56:43;;;;;;;6.38;5.10;;;19.50;99.90;;;;;;5090839;28;20055;-67
2021/06/25 02:59:09;;;;;;;5.82;5.32;;;19.50;99.90;;;;;;5089679;28;20021;-68
2021/06/25 03:01:34;;;;;;;5.93;5.32;;;19.50;99.90;;;;;;5070441;28;20017;-70
2021/06/25 03:04:00;;;;;;;6.40;5.80;;;19.50;99.90;;;;;;5070635;28;20031;-66
2021/06/25 03:06:26;;;;;;;6.65;6.03;;;19.50;99.90;;;;;;5069178;28;20021;-66
2021/06/25 03:08:52;;;;;;;6.68;5.70;;;19.50;99.90;;;;;;5070942;28;20027;-66
2021/06/25 03:11:17;;;;;;;6.45;5.85;;;19.50;99.90;;;;;;5073079;28;20506;-66
2021/06/25 03:13:43;;;;;;;5.75;5.22;;;19.50;99.90;;;;;;5073560;28;20048;-66
2021/06/25 03:16:09;;;;;;;6.55;5.88;;;19.50;99.90;;;;;;5073148;28;20082;-67
2021/06/25 03:18:34;;;;;;;6.20;5.60;;;19.50;99.90;;;;;;5074094;28;20030;-71
2021/06/25 03:21:00;;;;;;;6.28;5.72;;;19.40;99.90;;;;;;5074340;28;20030;-66
2021/06/25 03:23:26;;;;;;;6.78;6.07;;;19.50;99.90;;;;;;5073953;28;20025;-67
2021/06/25 03:25:52;;;;;;;5.57;5.07;;;19.40;99.90;;;;;;5073619;28;20075;-66
2021/06/25 03:28:18;;;;;;;6.22;5.63;;;19.40;99.90;;;;;;5074136;28;20035;-67
2021/06/25 03:30:44;;;;;;;6.60;6.00;;;19.40;99.90;;;;;;5073767;28;20032;-66
2021/06/25 03:33:09;;;;;;;6.20;5.55;;;19.40;99.90;;;;;;5073923;28;20025;-67
2021/06/25 03:35:35;;;;;;;6.05;5.50;;;19.40;99.90;;;;;;5073785;28;20048;-66
2021/06/25 03:38:01;;;;;;;6.80;6.03;;;19.40;99.90;;;;;;5073858;28;20078;-66
2021/06/25 03:40:30;;;;;;;7.13;5.65;;;19.40;99.90;;;;;;5073674;28;20025;-65
2021/06/25 03:42:56;;;;;;;6.60;5.72;;;19.40;99.90;;;;;;5075569;28;20033;-66
2021/06/25 03:45:21;;;;;;;5.85;5.25;;;19.40;99.90;;;;;;5073146;28;20082;-66
2021/06/25 03:47:47;;;;;;;6.30;5.70;;;19.40;99.90;;;;;;5073719;28;20024;-66
2021/06/25 03:50:13;;;;;;;5.95;5.35;;;19.40;99.90;;;;;;5073663;28;20473;-67
2021/06/25 03:52:39;;;;;;;5.93;5.32;;;19.40;99.90;;;;;;5073427;28;20022;-65
2021/06/25 03:55:09;;;;;;;6.03;5.35;;;19.40;99.90;;;;;;5073566;28;20392;-66
2021/06/25 03:57:34;;;;;;;5.82;5.32;;;19.30;99.90;;;;;;5073508;28;20047;-66
2021/06/25 04:00:00;;;;;;;6.50;5.50;;;19.40;99.90;;;;;;5073419;28;20476;-67
2021/06/25 04:02:26;;;;;;;6.20;5.60;;;19.30;99.90;;;;;;5073187;28;20016;-66
2021/06/25 04:04:51;;;;;;;6.30;5.70;;;19.40;99.90;;;;;;5073663;28;20037;-66
2021/06/25 04:07:19;;;;;;;6.15;5.55;;;19.40;99.90;;;;;;5073260;28;20044;-65
2021/06/25 04:09:45;;;;;;;6.72;6.13;;;19.30;99.90;;;;;;5073214;28;20043;-65
2021/06/25 04:12:10;;;;;;;6.10;5.50;;;19.40;99.90;;;;;;5073998;28;20028;-66
2021/06/25 04:14:36;;;;;;;5.93;5.43;;;19.30;99.90;;;;;;5071379;28;20392;-65
2021/06/25 04:17:02;;;;;;;6.10;5.13;;;19.40;99.90;;;;;;5073128;28;20036;-66
2021/06/25 04:19:27;;;;;;;5.60;5.10;;;19.30;99.90;;;;;;5072904;28;20032;-66
2021/06/25 04:21:53;;;;;;;5.85;5.30;;;19.30;99.90;;;;;;5072286;28;20054;-66
2021/06/25 04:24:18;;;;;;;6.18;5.68;;;19.30;99.90;;;;;;5071856;28;20452;-66
2021/06/25 04:26:44;;;;;;;5.78;5.25;;;19.40;99.90;;;;;;5072624;28;20373;-65
2021/06/25 04:29:13;;;;;;;6.18;5.38;;;19.30;99.90;;;;;;5072925;28;20469;-66
2021/06/25 04:31:40;;;;;;;5.85;5.25;;;19.30;99.90;;;;;;5084824;28;20382;-65
2021/06/25 04:34:06;;;;;;;5.63;5.13;;;19.30;99.90;;;;;;5090115;28;20032;-64
2021/06/25 04:36:32;;;;;;;5.80;5.18;;;19.30;99.90;;;;;;5092642;28;20024;-66
2021/06/25 04:38:57;;;;;;;5.35;4.75;;;19.30;99.90;;;;;;5092984;28;20051;-66
2021/06/25 04:41:23;;;;;;;5.43;4.93;;;19.40;99.90;;;;;;5084021;28;20411;-66
2021/06/25 04:43:49;;;;;;;5.45;4.90;;;19.30;99.90;;;;;;5072481;28;20037;-65
2021/06/25 04:46:15;;;;;;;5.55;4.95;;;19.30;99.90;;;;;;5072544;28;20045;-66
2021/06/25 04:48:43;;;;;;;5.88;4.88;;;19.30;99.90;;;;;;5072289;28;20025;-65
2021/06/25 04:51:09;;;;;;;5.35;4.78;;;19.30;99.90;;;;;;5070995;28;20032;-67
2021/06/25 04:53:35;;;;;;;5.05;4.65;;;19.30;99.90;;;;;;5072099;28;20099;-66
2021/06/25 04:56:01;;;;;;;5.55;5.05;;;19.30;99.90;;;;;;5072333;28;20367;-65
2021/06/25 04:58:27;;;;;;;5.45;4.90;;;19.40;99.90;;;;;;5072079;28;20499;-65
2021/06/25 05:00:54;;;;;;;5.63;5.13;;;19.30;99.90;;;;;;5073446;28;20025;-66
2021/06/25 05:03:19;;;;;;;6.18;5.57;;;19.30;99.90;;;;;;5072104;28;20024;-65
2021/06/25 05:05:45;;;;;;;5.38;4.88;;;19.30;99.90;;;;;;5071861;28;20093;-65
2021/06/25 05:08:11;;;;;;;5.10;4.60;;;19.30;99.90;;;;;;5071982;28;20028;-68
2021/06/25 05:10:37;;;;;;;5.20;4.78;;;19.40;99.90;;;;;;5072748;28;20068;-69
2021/06/25 05:13:04;;;;;;;5.68;4.57;;;19.30;99.90;;;;;;5072066;28;20033;-66
2021/06/25 05:15:30;;;;;;;5.85;5.10;;;19.30;99.90;;;;;;5071776;28;20025;-65
2021/06/25 05:17:56;;;;;;;5.07;4.60;;;19.30;99.90;;;;;;5072147;28;20016;-66
2021/06/25 05:20:22;;;;;;;4.82;4.30;;;19.30;99.90;;;;;;5070560;28;20036;-64
2021/06/25 05:22:50;;;;;;;4.90;4.50;;;19.30;99.90;;;;;;5072052;28;20417;-68
2021/06/25 05:25:16;;;;;;;4.88;4.47;;;19.40;99.90;;;;;;5071655;28;20366;-65
2021/06/25 05:27:42;;;;;;;4.65;4.25;;;19.30;99.90;;;;;;5071610;28;20023;-66
2021/06/25 05:30:10;;;;;;;5.28;4.78;;;19.30;99.90;;;;;;5072520;28;20036;-66
2021/06/25 05:32:35;;;;;;;4.72;4.30;;;19.40;99.90;;;;;;5071290;28;20024;-65
2021/06/25 05:35:02;;;;;;;4.95;4.50;;;19.30;99.90;;;;;;5070815;28;20098;-65
2021/06/25 05:37:27;;;;;;;4.85;4.45;;;19.30;99.90;;;;;;5071255;28;20035;-68
2021/06/25 05:39:53;;;;;;;4.85;4.45;;;19.30;99.90;;;;;;5071989;28;20029;-66
2021/06/25 05:42:19;;;;;;;4.82;4.40;;;19.30;99.90;;;;;;5070476;28;20017;-68
2021/06/25 05:44:44;;;;;;;4.95;4.20;;;19.30;99.90;;;;;;5080753;28;20081;-68
2021/06/25 05:47:10;;;;;;;4.68;4.18;;;19.40;99.90;;;;;;5072915;28;20048;-68
2021/06/25 05:49:36;;;;;;;4.90;4.40;;;19.30;99.90;;;;;;5071312;28;20070;-67
2021/06/25 05:52:02;;;;;;;4.50;4.10;;;19.30;99.90;;;;;;5083667;28;20028;-65
2021/06/25 05:54:28;;;;;;;4.63;4.20;;;19.40;99.90;;;;;;5071066;28;20073;-64
2021/06/25 05:56:54;;;;;;;4.68;4.25;;;19.40;99.90;;;;;;5078007;28;20032;-64
2021/06/25 05:59:20;;;;;;;5.22;4.20;;;19.40;99.90;;;;;;5085829;28;20051;-64
2021/06/25 06:01:45;;;;;;;4.88;4.13;;;19.40;99.90;;;;;;5091608;28;20024;-73
2021/06/25 06:04:11;;;;;;;4.45;4.05;;;19.40;99.90;;;;;;5075637;28;20450;-64
2021/06/25 06:06:37;;;;;;;4.43;4.03;;;19.40;99.90;;;;;;5083116;28;20047;-66
2021/06/25 06:09:03;;;;;;;4.60;4.00;;;19.40;99.90;;;;;;5091000;28;20047;-65
2021/06/25 06:11:29;;;;;;;6.50;4.10;;;19.40;99.90;;;;;;5089509;28;20386;-66
2021/06/25 06:13:55;;;;;;;5.13;4.13;;;19.50;99.90;;;;;;5091040;28;20024;-67
2021/06/25 06:16:20;;;;;;;5.57;3.92;;;19.40;99.90;;;;;;5091187;28;20036;-68
2021/06/25 06:18:47;;;;;;;6.63;4.15;;;19.50;99.90;;;;;;5091568;28;20020;-65
2021/06/25 06:21:15;;;;;;;5.53;4.22;;;19.50;99.90;;;;;;5079292;28;20085;-64
2021/06/25 06:34:23;;;;;;;8.27;4.70;;;19.50;99.90;;;;;;5070589;28;20028;-71
2021/06/25 06:36:49;;;;;;;8.38;4.47;;;19.50;99.90;;;;;;5089476;28;20020;-70
2021/06/25 06:39:15;;;;;;;6.43;4.70;;;19.50;99.90;;;;;;5090427;28;20035;-70
2021/06/25 06:41:41;;;;;;;8.32;4.75;;;19.60;99.90;;;;;;5084600;28;20031;-66
2021/06/25 06:44:08;;;;;;;6.65;4.38;;;19.50;99.90;;;;;;5074528;28;20111;-67
2021/06/25 06:46:35;;;;;;;8.80;4.20;;;19.60;99.90;;;;;;5069384;28;20488;-65
2021/06/25 06:49:02;;;;;;;5.10;4.15;;;19.50;99.90;;;;;;5073145;28;20400;-67
2021/06/25 06:51:28;;;;;;;4.57;4.13;;;19.50;99.90;;;;;;5073068;28;20535;-65
2021/06/25 06:53:56;;;;;;;7.32;4.68;;;19.50;99.90;;;;;;5090854;28;20024;-67
2021/06/25 06:56:23;;;;;;;7.57;4.40;;;19.60;99.90;;;;;;5093245;28;20024;-71
2021/06/25 06:58:49;;;;;;;9.52;4.35;;;19.60;99.90;;;;;;5078002;28;20111;-70
2021/06/25 07:01:15;;;;;;;7.70;4.82;;;19.60;99.90;;;;;;5074088;28;20055;-70
2021/06/25 07:03:41;;;;;;;7.55;5.15;;;19.60;99.90;;;;;;5072542;28;20024;-70
2021/06/25 07:06:07;;;;;;;9.23;5.22;;;19.60;99.90;;;;;;5072872;28;20416;-69
2021/06/25 07:08:33;;;;;;;8.30;5.40;;;19.60;99.90;;;;;;5072922;28;20087;-65
2021/06/25 07:10:59;;;;;;;10.68;5.05;;;19.60;99.90;;;;;;5073202;28;20028;-65
2021/06/25 07:13:25;;;;;;;5.95;4.35;;;19.60;99.90;;;;;;5070253;28;20031;-69
2021/06/25 07:15:52;;;;;;;8.77;5.25;;;19.60;99.90;;;;;;5073042;28;20028;-69
2021/06/25 07:18:17;;;;;;;6.82;4.93;;;19.60;99.90;;;;;;5073957;28;20043;-68
2021/06/25 07:20:43;;;;;;;9.70;4.47;;;19.60;99.90;;;;;;5070314;28;20036;-70
2021/06/25 07:23:09;;;;;;;6.25;4.30;;;19.70;99.90;;;;;;5073602;28;20032;-72
2021/06/25 07:25:34;;;;;;;9.25;4.10;;;19.70;99.90;;;;;;5072260;28;20036;-73
2021/06/25 07:28:00;;;;;;;4.80;3.80;;;19.60;99.90;;;;;;5072893;28;20361;-75
2021/06/25 07:30:26;;;;;;;6.07;3.70;;;19.70;99.90;;;;;;5073248;28;20039;-65
2021/06/25 07:32:52;;;;;;;4.88;4.13;;;19.60;99.90;;;;;;5072638;28;20043;-69
2021/06/25 07:35:18;;;;;;;4.75;3.55;;;19.70;99.90;;;;;;5072620;28;20086;-66
2021/06/25 07:37:45;;;;;;;4.88;4.05;;;19.70;99.90;;;;;;5071890;28;20017;-66
2021/06/25 07:40:11;;;;;;;4.47;3.67;;;19.70;99.90;;;;;;5069968;28;20107;-65
2021/06/25 07:42:37;;;;;;;4.97;3.85;;;19.80;99.90;;;;;;5072512;28;20055;-66
2021/06/25 07:45:09;;;;;;;5.22;3.85;;;19.80;99.90;;;;;;5073290;28;20078;-66
2021/06/25 07:47:40;;;;;;;5.90;3.42;;;19.80;99.90;;;;;;5059310;28;20103;-70
2021/06/25 07:50:12;;;;;;;5.72;3.65;;;19.90;99.90;;;;;;5073905;28;20040;-67
2021/06/25 07:52:37;;;;;;;4.68;3.55;;;19.90;99.90;;;;;;5075456;28;20480;-66
2021/06/25 07:55:04;;;;;;;4.63;3.53;;;19.90;99.90;;;;;;5074135;28;20102;-73
2021/06/25 07:57:30;;;;;;;4.75;3.67;;;19.90;99.90;;;;;;5076603;28;20029;-69
2021/06/25 07:59:56;;;;;;;4.65;4.18;;;19.90;99.90;;;;;;5073690;28;20107;-68
2021/06/25 08:02:22;;;;;;;6.07;3.33;;;19.90;99.90;;;;;;5073148;28;20024;-70
2021/06/25 08:04:48;;;;;;;7.28;3.90;;;20.00;99.90;;;;;;5073330;28;20033;-67
2021/06/25 08:07:14;;;;;;;4.75;3.92;;;20.00;99.90;;;;;;5073540;28;20025;-68
2021/06/25 08:09:41;;;;;;;5.55;3.50;;;20.00;99.90;;;;;;5072036;28;20081;-70
2021/06/25 08:12:12;;;;;;;4.40;3.80;;;20.00;99.90;;;;;;5073312;28;20020;-71
2021/06/25 08:14:39;;;;;;;7.22;3.75;;;20.10;99.90;;;;;;5074895;28;20036;-74
2021/06/25 08:17:06;;;;;;;4.32;3.42;;;20.10;99.90;;;;;;5082483;28;20157;-72
2021/06/25 08:19:31;;;;;;;5.50;3.70;;;20.10;99.90;;;;;;5073147;28;20028;-76
2021/06/25 08:21:57;;;;;;;3.97;3.47;;;20.10;99.90;;;;;;5073228;28;20508;-77
2021/06/25 08:24:23;;;;;;;5.10;3.20;;;20.10;99.90;;;;;;5089767;28;20039;-73
2021/06/25 08:26:49;;;;;;;4.55;3.75;;;20.10;99.90;;;;;;5093157;28;20465;-74
2021/06/25 08:29:15;;;;;;;4.55;3.65;;;20.20;99.90;;;;;;5092060;28;20035;-68
2021/06/25 08:31:41;;;;;;;4.50;3.53;;;20.20;99.90;;;;;;5093013;28;20020;-69
2021/06/25 08:34:10;;;;;;;5.10;3.40;;;20.20;99.90;;;;;;5093083;28;20020;-71
2021/06/25 08:36:36;;;;;;;4.93;3.80;;;20.20;99.90;;;;;;5092679;28;20059;-70
2021/06/25 08:39:03;;;;;;;4.38;3.25;;;20.20;99.90;;;;;;5093264;28;20487;-73
2021/06/25 08:41:28;;;;;;;4.53;3.65;;;20.30;99.90;;;;;;5092942;28;20051;-74
2021/06/25 08:43:54;;;;;;;5.65;3.83;;;20.30;99.90;;;;;;5089036;28;20051;-70
2021/06/25 08:46:20;;;;;;;5.53;4.00;;;20.30;99.90;;;;;;5071771;28;20128;-70
2021/06/25 08:48:48;;;;;;;5.80;4.05;;;20.30;99.90;;;;;;5072340;28;20020;-71
2021/06/25 08:51:14;;;;;;;4.50;3.72;;;20.30;99.90;;;;;;5072379;28;20028;-69
2021/06/25 08:53:40;;;;;;;4.82;3.95;;;20.40;99.90;;;;;;5072168;28;20024;-67
2021/06/25 08:56:05;;;;;;;6.47;3.75;;;20.40;99.90;;;;;;5072332;28;20027;-67
2021/06/25 08:58:31;;;;;;;4.40;3.55;;;20.40;99.90;;;;;;5072393;28;20443;-72
2021/06/25 09:00:59;;;;;;;4.00;3.30;;;20.40;99.90;;;;;;5072325;28;20426;-69
2021/06/25 09:03:29;;;;;;;4.80;3.53;;;20.40;99.90;;;;;;5072237;28;20036;-74
2021/06/25 09:06:14;;;;;;;3.88;3.47;;;20.40;99.90;;;;;;5071929;28;20040;-72
2021/06/25 09:08:42;;;;;;;4.75;3.55;;;20.40;99.90;;;;;;5071465;28;20384;-72
2021/06/25 09:11:40;;;;;;;5.05;3.40;;;20.50;99.90;;;;;;5071345;28;20040;-74
2021/06/25 09:14:06;;;;;;;4.50;4.00;;;20.50;99.90;;;;;;5060667;28;20069;-68
2021/06/25 09:16:37;;;;;;;4.03;3.47;;;20.50;99.90;;;;;;5071281;28;20021;-74
2021/06/25 09:19:16;;;;;;;4.15;3.80;;;20.50;99.90;;;;;;5072253;28;20055;-74
2021/06/25 09:21:59;;;;;;;3.72;3.42;;;20.50;99.90;;;;;;5071559;28;20020;-70
2021/06/25 09:24:26;;;;;;;4.60;4.05;;;20.50;99.90;;;;;;5071723;28;20115;-71
2021/06/25 09:26:58;;;;;;;5.05;4.03;;;20.50;99.90;;;;;;5070861;28;20036;-72
2021/06/25 09:29:27;;;;;;;4.25;3.85;;;20.50;99.90;;;;;;5070096;28;20028;-74
2021/06/25 09:31:57;;;;;;;4.13;3.72;;;20.60;99.90;;;;;;5071005;28;20029;-69
2021/06/25 09:34:38;;;;;;;4.55;4.15;;;20.60;99.90;;;;;;5071226;28;20020;-69
2021/06/25 09:37:05;;;;;;;5.18;4.00;;;20.60;99.90;;;;;;5071969;28;20057;-70
2021/06/25 09:39:30;;;;;;;4.72;4.22;;;20.60;99.90;;;;;;5078672;28;20375;-66
2021/06/25 09:41:56;;;;;;;4.25;3.85;;;20.60;99.90;;;;;;5082766;28;20103;-71
2021/06/25 09:44:24;;;;;;;4.70;4.03;;;20.60;99.90;;;;;;5079738;28;20029;-69
2021/06/25 09:46:54;;;;;;;5.05;3.78;;;20.70;99.90;;;;;;5071394;28;20036;-73
2021/06/25 09:49:27;;;;;;;4.68;4.00;;;20.70;99.90;;;;;;5062241;28;20024;-69
2021/06/25 09:51:58;;;;;;;5.00;4.50;;;20.70;99.90;;;;;;5086834;28;20047;-72
2021/06/25 09:54:25;;;;;;;4.88;4.38;;;20.70;99.90;;;;;;5091489;28;20026;-72
2021/06/25 09:57:10;;;;;;;5.03;4.38;;;20.70;99.90;;;;;;5076993;28;20082;-74
2021/06/25 10:02:31;;;;;;;6.30;4.50;;;20.70;99.90;;;;;;5069978;28;20078;-74
2021/06/25 10:05:10;;;;;;;6.13;3.97;;;20.70;99.90;;;;;;5069446;28;20036;-73
2021/06/25 10:07:36;;;;;;;5.82;4.50;;;20.70;99.90;;;;;;5069624;28;20016;-69
2021/06/25 10:10:09;;;;;;;4.30;3.90;;;20.80;99.90;;;;;;5070186;28;20032;-72
2021/06/25 10:12:43;;;;;;;4.82;4.32;;;20.80;99.90;;;;;;5069850;28;20070;-73
2021/06/25 10:15:09;;;;;;;;;;;20.80;99.90;;;;;;5072512;28;20037;-70
2021/06/25 10:17:36;;;;;;;5.65;4.80;;;20.80;99.90;;;;;;5069886;28;19957;-70
2021/06/25 10:20:12;;;;;;;5.10;4.60;;;20.80;99.90;;;;;;5070093;28;20472;-68
2021/06/25 10:22:46;;;;;;;5.40;4.70;;;20.70;99.90;;;;;;5069511;28;20376;-63
2021/06/25 10:25:13;;;;;;;5.32;4.80;;;20.70;99.90;;;;;;5074884;28;20400;-63
2021/06/25 10:27:39;;;;;;;4.93;4.43;;;20.70;99.90;;;;;;5073700;28;20016;-65
2021/06/25 10:30:06;;;;;;;6.90;4.65;;;20.80;99.90;;;;;;5073917;28;20056;-65
2021/06/25 10:32:36;;;;;;;5.55;4.88;;;20.70;99.90;;;;;;5073821;28;20058;-64
2021/06/25 10:35:02;;;;;;;6.05;5.03;;;20.70;99.90;;;;;;5073487;28;20024;-64
2021/06/25 10:37:28;;;;;;;6.38;4.97;;;20.70;99.90;;;;;;5073698;28;20025;-66
2021/06/25 10:39:54;;;;;;;8.63;5.28;;;20.70;99.90;;;;;;5073780;28;20035;-67
2021/06/25 10:42:20;;;;;;;5.40;4.90;;;20.70;99.90;;;;;;5073912;28;20028;-68
2021/06/25 10:44:56;;;;;;;5.72;5.03;;;20.70;99.90;;;;;;5073590;28;20032;-64
2021/06/25 10:47:25;;;;;;;8.85;4.85;;;20.70;99.90;;;;;;5073404;28;20484;-63
2021/06/25 10:50:07;;;;;;;5.65;4.68;;;20.70;99.90;;;;;;5074094;28;20036;-64
2021/06/25 10:52:40;;;;;;;5.13;4.63;;;20.70;99.90;;;;;;5071437;28;20451;-64
2021/06/25 10:55:16;;;;;;;5.55;5.00;;;20.80;99.90;;;;;;5073092;28;20024;-64
2021/06/25 10:57:51;;;;;;;5.35;4.85;;;20.80;99.90;;;;;;5073013;28;20103;-64
2021/06/25 11:00:38;;;;;;;5.53;5.00;;;20.80;99.90;;;;;;5071673;28;20046;-63
2021/06/25 11:03:06;;;;;;;6.35;4.70;;;20.80;99.90;;;;;;5072437;28;20029;-64
2021/06/25 11:05:32;;;;;;;5.65;5.05;;;20.80;99.90;;;;;;5068989;28;20438;-63
2021/06/25 11:08:02;;;;;;;5.88;5.03;;;20.80;99.90;;;;;;5073456;28;20473;-63
2021/06/25 11:10:34;;;;;;;6.63;5.93;;;20.70;99.90;;;;;;5072658;28;20036;-63
2021/06/25 11:13:27;;;;;;;7.15;6.45;;;20.70;99.90;;;;;;5072865;28;20040;-63
2021/06/25 11:15:59;;;;;;;11.05;7.97;;;20.70;99.90;;;;;;5069004;28;20074;-64
2021/06/25 11:18:29;;;;;;;9.93;7.50;;;20.70;99.90;;;;;;5070803;28;20039;-65
2021/06/25 11:21:07;;;;;;;10.68;8.20;;;20.70;99.90;;;;;;5072826;28;20060;-65
2021/06/25 11:23:39;;;;;;;11.00;8.40;;;20.70;99.90;;;;;;5073897;28;20027;-64
2021/06/25 11:26:14;;;;;;;12.07;8.57;;;20.70;99.90;;;;;;5086637;28;20475;-63
2021/06/25 11:28:44;;;;;;;13.55;9.07;;;20.80;99.90;;;;;;5083592;28;20380;-64
2021/06/25 11:31:17;;;;;;;12.98;9.52;;;20.80;99.90;;;;;;5074120;28;20476;-64
2021/06/25 11:33:42;;;;;;;10.82;9.13;;;20.70;99.90;;;;;;5073037;28;20039;-63
2021/06/25 11:36:14;;;;;;;10.48;8.57;;;20.70;99.90;;;;;;5074039;28;20020;-64
2021/06/25 11:38:58;;;;;;;12.52;8.57;;;20.70;99.90;;;;;;5073354;28;20032;-64
2021/06/25 11:41:34;;;;;;;11.57;8.90;;;20.70;99.90;;;;;;5073051;28;20645;-64
2021/06/25 11:44:01;;;;;;;11.32;8.32;;;20.70;99.90;;;;;;5079376;28;20107;-63
2021/06/25 11:46:27;;;;;;;11.32;8.52;;;20.70;99.90;;;;;;5093712;28;20066;-64
2021/06/25 11:49:00;;;;;;;10.63;8.13;;;20.70;99.90;;;;;;5094013;28;20028;-64
2021/06/25 11:51:33;;;;;;;9.65;8.23;;;20.70;99.90;;;;;;5093810;28;20438;-63
2021/06/25 11:54:01;;;;;;;11.25;8.02;;;20.70;99.90;;;;;;5093963;28;20074;-65
2021/06/25 11:56:27;;;;;;;9.95;7.90;;;20.70;99.90;;;;;;5078757;28;20115;-63
2021/06/25 11:59:04;;;;;;;11.98;8.38;;;20.70;99.90;;;;;;5070352;28;20104;-63
2021/06/25 12:01:31;;;;;;;8.20;7.35;;;20.70;99.90;;;;;;5069325;28;20052;-64
2021/06/25 12:03:59;;;;;;;8.65;7.03;;;20.70;99.90;;;;;;5071318;28;20078;-63
2021/06/25 12:06:25;;;;;;;10.43;7.63;;;20.70;99.90;;;;;;5071043;28;20507;-64
2021/06/25 12:08:56;;;;;;;8.50;7.00;;;20.70;99.90;;;;;;5071894;28;20032;-64
2021/06/25 12:11:24;;;;;;;14.77;7.53;;;20.80;99.90;;;;;;5071575;28;20346;-64
2021/06/25 12:14:04;;;;;;;10.63;7.10;;;20.80;99.90;;;;;;5069459;28;20025;-64
2021/06/25 12:16:31;;;;;;;10.10;7.75;;;20.80;99.90;;;;;;5068979;28;20036;-65
2021/06/25 12:18:58;;;;;;;10.50;7.47;;;20.80;99.90;;;;;;5071678;28;20036;-63
2021/06/25 12:21:25;;;;;;;8.73;6.75;;;20.80;99.90;;;;;;5071265;28;20025;-65
2021/06/25 12:23:55;;;;;;;8.68;6.88;;;20.80;99.90;;;;;;5072027;28;20349;-64
2021/06/25 12:26:22;;;;;;;9.38;7.25;;;20.80;99.90;;;;;;5071671;28;20086;-66
2021/06/25 12:28:56;;;;;;;10.88;7.55;;;20.80;99.90;;;;;;5073063;28;20107;-64
2021/06/25 12:31:29;;;;;;;9.40;6.93;;;20.80;99.90;;;;;;5071637;28;20384;-65
2021/06/25 12:34:05;;;;;;;8.57;6.90;;;20.80;99.90;;;;;;5072334;28;20032;-65
2021/06/25 12:36:31;;;;;;;8.80;6.85;;;20.70;99.90;;;;;;5071499;28;20511;-65
2021/06/25 12:39:02;;;;;;;7.50;6.70;;;20.70;99.90;;;;;;5070740;28;20024;-65
2021/06/25 12:41:28;;;;;;;7.22;5.85;;;20.70;99.90;;;;;;5070480;28;20033;-65
2021/06/25 12:43:55;;;;;;;9.65;6.80;;;20.70;99.90;;;;;;5070911;28;20119;-65
2021/06/25 12:46:23;;;;;;;8.68;6.72;;;20.80;99.90;;;;;;5070314;28;20115;-65
2021/06/25 12:49:00;;;;;;;7.25;6.25;;;20.80;99.90;;;;;;5068702;28;20047;-65
2021/06/25 12:51:28;;;;;;;8.32;6.82;;;20.80;99.90;;;;;;5071261;28;20021;-65
2021/06/25 12:53:57;;;;;;;7.80;6.63;;;20.80;99.90;;;;;;5071389;28;20028;-65
2021/06/25 12:56:38;;;;;;;8.95;6.07;;;20.80;99.90;;;;;;5071006;28;20081;-65
2021/06/25 12:59:21;;;;;;;6.53;5.80;;;20.80;99.90;;;;;;5070309;28;20028;-65
2021/06/25 13:01:55;;;;;;;8.52;6.60;;;20.80;99.90;;;;;;5071840;28;20381;-63